createdAt,value
2022-08-30T00:00:45.400Z,99.90
2022-08-30T00:03:21.014Z,99.90
2022-08-30T00:05:51.948Z,99.90
2022-08-30T00:08:27.532Z,99.90
2022-08-30T00:10:59.159Z,99.90
2022-08-30T00:13:26.859Z,99.90
2022-08-30T00:15:57.203Z,99.90
2022-08-30T00:18:25.968Z,99.90
2022-08-30T00:20:55.447Z,99.90
2022-08-30T00:23:26.509Z,99.90
2022-08-30T00:25:54.695Z,99.90
2022-08-30T00:28:27.902Z,99.90
2022-08-30T00:30:57.928Z,99.90
2022-08-30T00:33:29.753Z,99.90
2022-08-30T00:35:57.532Z,99.90
2022-08-30T00:38:27.560Z,99.90
2022-08-30T00:40:58.460Z,99.90
2022-08-30T00:43:34.588Z,99.90
2022-08-30T00:46:13.563Z,99.90
2022-08-30T00:48:45.349Z,99.90
2022-08-30T00:51:17.900Z,99.90
2022-08-30T00:53:51.001Z,99.90
2022-08-30T00:56:19.458Z,99.90
2022-08-30T00:58:51.125Z,99.90
2022-08-30T01:01:19.739Z,99.90
2022-08-30T01:03:56.476Z,99.90
2022-08-30T01:06:26.474Z,99.90
2022-08-30T01:09:04.802Z,99.90
2022-08-30T01:11:38.416Z,99.90
2022-08-30T01:14:13.554Z,99.90
2022-08-30T01:16:43.783Z,99.90
2022-08-30T01:19:32.329Z,99.90
2022-08-30T01:22:17.812Z,99.90
2022-08-30T01:24:50.992Z,99.90
2022-08-30T01:27:19.309Z,99.90
2022-08-30T01:29:47.389Z,99.90
2022-08-30T01:32:29.549Z,99.90
2022-08-30T01:35:00.212Z,99.90
2022-08-30T01:37:31.807Z,99.90
2022-08-30T01:40:02.787Z,99.90
2022-08-30T01:42:30.548Z,99.90
2022-08-30T01:45:00.859Z,99.90
2022-08-30T01:47:37.210Z,99.90
2022-08-30T01:50:07.587Z,99.90
2022-08-30T01:52:40.048Z,99.90
2022-08-30T01:55:12.764Z,99.90
2022-08-30T01:57:53.908Z,99.90
2022-08-30T02:00:21.745Z,99.90
2022-08-30T02:02:52.369Z,99.90
2022-08-30T02:05:20.295Z,99.90
2022-08-30T02:07:48.101Z,99.90
2022-08-30T02:10:16.125Z,99.90
2022-08-30T02:12:48.941Z,99.90
2022-08-30T02:15:17.278Z,99.90
2022-08-30T02:17:45.035Z,99.90
2022-08-30T02:20:12.935Z,99.90
2022-08-30T02:22:40.919Z,99.90
2022-08-30T02:25:20.923Z,99.90
2022-08-30T02:27:49.482Z,99.90
2022-08-30T02:30:26.675Z,99.90
2022-08-30T02:32:54.771Z,99.90
2022-08-30T02:35:25.303Z,99.90
2022-08-30T02:37:53.969Z,99.90
2022-08-30T02:40:22.692Z,99.90
2022-08-30T02:42:50.615Z,99.90
2022-08-30T02:45:18.521Z,99.90
2022-08-30T02:47:47.314Z,99.90
2022-08-30T02:50:16.059Z,99.90
2022-08-30T02:52:48.324Z,99.90
2022-08-30T02:55:17.152Z,99.90
2022-08-30T02:57:48.003Z,99.90
2022-08-30T03:00:22.486Z,99.90
2022-08-30T03:02:55.897Z,99.90
2022-08-30T03:05:24.139Z,99.90
2022-08-30T03:07:54.702Z,99.90
2022-08-30T03:10:34.113Z,99.90
2022-08-30T03:13:01.954Z,99.90
2022-08-30T03:15:33.918Z,99.90
2022-08-30T03:18:01.948Z,99.90
2022-08-30T03:20:32.929Z,99.90
2022-08-30T03:23:00.956Z,99.90
2022-08-30T03:25:31.648Z,99.90
2022-08-30T03:27:59.311Z,99.90
2022-08-30T03:30:27.939Z,99.90
2022-08-30T03:33:00.669Z,99.90
2022-08-30T03:35:33.218Z,99.90
2022-08-30T03:38:08.338Z,99.90
2022-08-30T03:40:38.815Z,99.90
2022-08-30T03:43:15.055Z,99.90
2022-08-30T03:45:43.319Z,99.90
2022-08-30T03:48:13.760Z,99.90
2022-08-30T03:50:41.443Z,99.90
2022-08-30T03:53:16.628Z,99.90
2022-08-30T03:55:49.978Z,99.90
2022-08-30T03:58:20.456Z,99.90
2022-08-30T04:00:48.264Z,99.90
2022-08-30T04:03:16.404Z,99.90
2022-08-30T04:05:47.544Z,99.90
2022-08-30T04:08:20.615Z,99.90
2022-08-30T04:10:49.413Z,99.90
2022-08-30T04:13:20.757Z,99.90
2022-08-30T04:15:52.334Z,99.90
2022-08-30T04:18:21.825Z,99.90
2022-08-30T04:20:55.674Z,99.90
2022-08-30T04:23:23.724Z,99.90
2022-08-30T04:25:51.615Z,99.90
2022-08-30T04:28:25.132Z,99.90
2022-08-30T04:31:16.267Z,99.90
2022-08-30T04:33:47.417Z,99.90
2022-08-30T04:36:23.257Z,99.90
2022-08-30T04:38:51.116Z,99.90
2022-08-30T04:41:21.387Z,99.90
2022-08-30T04:43:56.323Z,99.90
2022-08-30T04:46:24.928Z,99.90
2022-08-30T04:48:52.649Z,99.90
2022-08-30T04:51:19.756Z,99.90
2022-08-30T04:53:46.904Z,99.90
2022-08-30T04:56:17.840Z,99.90
2022-08-30T04:58:46.781Z,99.90
2022-08-30T05:01:44.639Z,99.90
2022-08-30T05:04:12.208Z,99.90
2022-08-30T05:06:39.171Z,99.90
2022-08-30T05:09:06.184Z,99.90
2022-08-30T05:11:33.189Z,99.90
2022-08-30T05:14:00.197Z,99.90
2022-08-30T05:16:27.709Z,99.90
2022-08-30T05:18:54.891Z,99.90
2022-08-30T05:21:25.526Z,99.90
2022-08-30T05:23:57.546Z,99.90
2022-08-30T05:26:28.188Z,99.90
2022-08-30T05:28:55.839Z,99.90
2022-08-30T05:31:32.493Z,99.90
2022-08-30T05:33:59.785Z,99.90
2022-08-30T05:36:29.565Z,99.90
2022-08-30T05:38:57.138Z,99.90
2022-08-30T05:41:26.439Z,99.90
2022-08-30T05:43:59.628Z,99.90
2022-08-30T05:46:30.176Z,99.90
2022-08-30T05:48:58.002Z,99.90
2022-08-30T05:51:28.845Z,99.90
2022-08-30T05:53:57.815Z,99.90
2022-08-30T05:56:33.050Z,99.90
2022-08-30T05:59:01.303Z,99.90
2022-08-30T06:01:37.883Z,99.90
2022-08-30T06:04:06.213Z,99.90
2022-08-30T06:06:36.131Z,99.90
2022-08-30T06:09:07.831Z,99.90
2022-08-30T06:11:35.037Z,99.90
2022-08-30T06:14:03.421Z,99.90
2022-08-30T06:16:30.635Z,99.90
2022-08-30T06:18:58.877Z,99.90
2022-08-30T06:21:37.434Z,99.90
2022-08-30T06:24:06.425Z,99.90
2022-08-30T06:26:38.624Z,99.90
2022-08-30T06:29:05.587Z,99.90
2022-08-30T06:31:33.793Z,99.90
2022-08-30T06:34:01.034Z,99.90
2022-08-30T06:36:28.222Z,99.90
2022-08-30T06:38:57.534Z,99.90
2022-08-30T06:41:30.480Z,99.90
2022-08-30T06:43:59.145Z,99.90
2022-08-30T06:46:32.569Z,99.90
2022-08-30T06:49:00.647Z,99.90
2022-08-30T06:51:31.551Z,99.90
2022-08-30T06:53:59.433Z,99.90
2022-08-30T06:56:27.587Z,99.90
2022-08-30T06:58:54.923Z,99.90
2022-08-30T07:01:24.741Z,99.90
2022-08-30T07:03:52.113Z,99.90
2022-08-30T07:06:19.851Z,99.90
2022-08-30T07:08:47.131Z,99.90
2022-08-30T07:11:15.053Z,99.90
2022-08-30T07:13:42.181Z,99.90
2022-08-30T07:16:12.000Z,99.90
2022-08-30T07:18:51.536Z,99.90
2022-08-30T07:21:20.831Z,99.90
2022-08-30T07:23:53.288Z,99.90
2022-08-30T07:26:30.710Z,99.90
2022-08-30T07:28:58.813Z,99.90
2022-08-30T07:31:26.097Z,99.90
2022-08-30T07:33:53.588Z,99.90
2022-08-30T07:36:22.054Z,99.90
2022-08-30T07:38:52.673Z,99.90
2022-08-30T07:41:23.568Z,99.90
2022-08-30T07:43:50.621Z,99.90
2022-08-30T07:46:18.602Z,99.90
2022-08-30T07:48:45.809Z,99.90
2022-08-30T07:51:23.225Z,99.90
2022-08-30T07:53:50.395Z,99.90
2022-08-30T07:56:17.373Z,99.90
2022-08-30T07:58:44.333Z,99.90
2022-08-30T08:01:13.221Z,99.90
2022-08-30T08:03:42.334Z,99.90
2022-08-30T08:06:12.120Z,99.90
2022-08-30T08:08:40.482Z,99.90
2022-08-30T08:11:19.332Z,99.90
2022-08-30T08:13:54.147Z,99.90
2022-08-30T08:16:24.270Z,99.90
2022-08-30T08:18:52.376Z,99.90
2022-08-30T08:21:19.639Z,99.90
2022-08-30T08:23:47.019Z,99.90
2022-08-30T08:26:14.090Z,99.90
2022-08-30T08:28:41.207Z,99.90
2022-08-30T08:31:19.351Z,99.90
2022-08-30T08:33:46.612Z,99.90
2022-08-30T08:36:14.159Z,99.90
2022-08-30T08:38:41.584Z,99.90
2022-08-30T08:41:30.064Z,99.90
2022-08-30T08:43:57.199Z,99.90
2022-08-30T08:46:28.593Z,99.90
2022-08-30T08:49:00.836Z,99.90
2022-08-30T08:51:51.596Z,99.90
2022-08-30T08:54:42.364Z,99.90
2022-08-30T08:57:13.849Z,99.90
2022-08-30T08:59:44.958Z,99.90
2022-08-30T09:02:39.926Z,99.90
2022-08-30T09:05:08.227Z,99.90
2022-08-30T09:07:42.214Z,99.90
2022-08-30T09:10:09.809Z,99.90
2022-08-30T09:12:37.091Z,99.90
2022-08-30T09:15:27.548Z,99.90
2022-08-30T09:17:58.616Z,99.90
2022-08-30T09:20:37.461Z,99.90
2022-08-30T09:23:17.516Z,99.90
2022-08-30T09:26:09.222Z,99.90
2022-08-30T09:28:49.593Z,99.90
2022-08-30T09:31:26.392Z,99.90
2022-08-30T09:34:05.274Z,99.90
2022-08-30T09:36:45.007Z,99.90
2022-08-30T09:39:39.503Z,99.90
2022-08-30T09:42:23.901Z,99.90
2022-08-30T09:44:51.323Z,99.90
2022-08-30T09:47:27.780Z,99.90
2022-08-30T09:50:24.261Z,99.90
2022-08-30T09:56:10.651Z,99.90
2022-08-30T09:58:50.035Z,99.90
2022-08-30T10:01:43.099Z,99.90
2022-08-30T10:04:17.485Z,99.90
2022-08-30T10:06:58.449Z,99.90
2022-08-30T10:09:35.554Z,99.90
2022-08-30T10:12:08.292Z,99.90
2022-08-30T10:14:51.568Z,99.90
2022-08-30T10:17:27.996Z,99.90
2022-08-30T10:20:25.118Z,99.90
2022-08-30T10:23:16.984Z,99.90
2022-08-30T10:25:53.690Z,99.90
2022-08-30T10:28:42.244Z,99.90
2022-08-30T10:31:24.400Z,99.90
2022-08-30T10:33:57.492Z,99.90
2022-08-30T10:36:40.200Z,99.90
2022-08-30T10:39:10.340Z,99.90
2022-08-30T10:41:48.838Z,99.90
2022-08-30T10:44:27.771Z,99.90
2022-08-30T10:47:07.135Z,99.90
2022-08-30T10:49:44.866Z,99.90
2022-08-30T10:52:25.705Z,99.90
2022-08-30T10:55:05.373Z,99.90
2022-08-30T10:57:33.121Z,99.90
2022-08-30T11:00:25.073Z,99.90
2022-08-30T11:03:36.415Z,99.90
2022-08-30T11:06:16.440Z,99.90
2022-08-30T11:09:09.563Z,99.90
2022-08-30T11:12:08.471Z,99.90
2022-08-30T11:14:41.720Z,99.90
2022-08-30T11:17:35.883Z,99.90
2022-08-30T11:20:05.820Z,99.90
2022-08-30T11:22:39.136Z,99.90
2022-08-30T11:25:15.773Z,99.90
2022-08-30T11:27:53.727Z,99.90
2022-08-30T11:30:27.491Z,99.90
2022-08-30T11:33:11.011Z,99.80
2022-08-30T11:35:49.909Z,99.80
2022-08-30T11:38:25.757Z,99.90
2022-08-30T11:40:56.235Z,99.90
2022-08-30T11:43:40.195Z,99.90
2022-08-30T11:46:28.727Z,99.90
2022-08-30T11:49:08.154Z,99.50
2022-08-30T11:52:26.608Z,99.00
2022-08-30T11:55:10.969Z,98.40
2022-08-30T11:57:54.497Z,98.90
2022-08-30T12:00:46.638Z,98.60
2022-08-30T12:03:30.912Z,99.60
2022-08-30T12:06:06.135Z,99.60
2022-08-30T12:08:36.191Z,98.60
2022-08-30T12:11:06.765Z,99.00
2022-08-30T12:13:39.490Z,98.30
2022-08-30T12:16:16.390Z,99.40
2022-08-30T12:19:00.139Z,98.30
2022-08-30T12:21:43.757Z,99.20
2022-08-30T12:24:21.129Z,99.00
2022-08-30T12:26:51.421Z,99.00
2022-08-30T12:29:20.019Z,98.80
2022-08-30T12:32:05.404Z,98.40
2022-08-30T12:34:41.867Z,98.40
2022-08-30T12:37:31.464Z,98.20
2022-08-30T12:40:09.923Z,96.70
2022-08-30T12:42:41.354Z,97.60
2022-08-30T12:45:14.452Z,97.60
2022-08-30T12:47:49.839Z,97.10
2022-08-30T12:50:24.964Z,97.40
2022-08-30T12:53:00.080Z,96.50
2022-08-30T12:55:34.874Z,97.30
2022-08-30T12:58:07.524Z,97.30
2022-08-30T13:00:40.970Z,96.90
2022-08-30T13:03:39.389Z,96.50
2022-08-30T13:06:08.165Z,95.50
2022-08-30T13:08:48.932Z,96.50
2022-08-30T13:11:22.081Z,96.30
2022-08-30T13:13:58.415Z,96.50
2022-08-30T13:16:36.861Z,95.50
2022-08-30T13:19:22.516Z,96.60
2022-08-30T13:21:55.342Z,95.80
2022-08-30T13:24:25.671Z,96.40
2022-08-30T13:26:55.929Z,96.00
2022-08-30T13:29:26.997Z,95.20
2022-08-30T13:31:55.267Z,94.70
2022-08-30T13:34:22.906Z,95.00
2022-08-30T13:36:53.536Z,95.60
2022-08-30T13:39:21.800Z,95.10
2022-08-30T13:41:49.682Z,95.80
2022-08-30T13:44:19.064Z,96.50
2022-08-30T13:46:54.022Z,95.10
2022-08-30T13:49:43.767Z,94.70
2022-08-30T13:52:22.596Z,96.10
2022-08-30T13:54:51.813Z,96.30
2022-08-30T14:00:12.681Z,95.50
2022-08-30T14:02:46.357Z,95.40
2022-08-30T14:05:37.528Z,95.90
2022-08-30T14:08:03.075Z,95.80
2022-08-30T14:10:32.281Z,95.70
2022-08-30T14:13:08.575Z,96.30
2022-08-30T14:15:39.683Z,95.90
2022-08-30T14:18:07.937Z,96.10
2022-08-30T14:20:38.696Z,96.00
2022-08-30T14:23:10.243Z,95.50
2022-08-30T14:25:40.773Z,95.70
2022-08-30T14:28:14.846Z,95.40
2022-08-30T14:30:42.409Z,95.90
2022-08-30T14:33:09.748Z,96.10
2022-08-30T14:35:36.814Z,95.70
2022-08-30T14:38:04.534Z,96.10
2022-08-30T14:40:33.356Z,96.40
2022-08-30T14:43:00.366Z,96.90
2022-08-30T14:45:27.398Z,96.70
2022-08-30T14:47:57.551Z,97.30
2022-08-30T14:50:25.370Z,96.80
2022-08-30T14:52:54.997Z,97.50
2022-08-30T14:55:22.125Z,97.20
2022-08-30T14:57:51.289Z,96.90
2022-08-30T15:00:19.806Z,97.80
2022-08-30T15:02:46.834Z,97.40
2022-08-30T15:05:13.961Z,97.10
2022-08-30T15:07:40.960Z,96.50
2022-08-30T15:10:09.684Z,97.50
2022-08-30T15:12:36.890Z,96.70
2022-08-30T15:15:04.754Z,97.00
2022-08-30T15:17:32.895Z,97.00
2022-08-30T15:19:59.873Z,96.30
2022-08-30T15:22:27.655Z,96.80
2022-08-30T15:24:55.791Z,96.50
2022-08-30T15:27:23.972Z,97.00
2022-08-30T15:29:50.990Z,97.30
2022-08-30T15:32:17.993Z,97.40
2022-08-30T15:34:45.419Z,96.90
2022-08-30T15:37:23.549Z,96.80
2022-08-30T15:39:52.823Z,96.60
2022-08-30T15:42:20.151Z,96.90
2022-08-30T15:44:53.989Z,96.90
2022-08-30T15:47:22.831Z,97.60
2022-08-30T15:49:57.591Z,97.30
2022-08-30T15:52:28.191Z,97.10
2022-08-30T15:54:56.000Z,96.80
2022-08-30T15:57:23.432Z,96.70
2022-08-30T15:59:50.594Z,96.90
2022-08-30T16:02:17.804Z,96.50
2022-08-30T16:04:46.534Z,96.70
2022-08-30T16:07:13.761Z,96.40
2022-08-30T16:09:40.924Z,96.50
2022-08-30T16:12:09.846Z,96.80
2022-08-30T16:14:37.282Z,96.90
2022-08-30T16:17:05.194Z,97.20
2022-08-30T16:19:32.451Z,97.30
2022-08-30T16:21:59.575Z,97.90
2022-08-30T16:24:27.170Z,97.80
2022-08-30T16:26:54.206Z,98.00
2022-08-30T16:29:21.553Z,98.40
2022-08-30T16:31:48.984Z,98.60
2022-08-30T16:34:20.138Z,98.60
2022-08-30T16:36:47.543Z,98.70
2022-08-30T16:39:15.212Z,98.80
2022-08-30T16:41:44.567Z,98.60
2022-08-30T16:44:12.014Z,98.80
2022-08-30T16:46:41.265Z,99.50
2022-08-30T16:49:10.493Z,99.30
2022-08-30T16:51:38.553Z,99.50
2022-08-30T16:54:07.857Z,99.30
2022-08-30T16:56:35.908Z,99.40
2022-08-30T16:59:07.029Z,99.30
2022-08-30T17:01:38.305Z,99.60
2022-08-30T17:04:08.141Z,99.50
2022-08-30T17:06:35.855Z,99.50
2022-08-30T17:09:04.421Z,99.30
2022-08-30T17:11:32.667Z,99.60
2022-08-30T17:13:59.702Z,99.60
2022-08-30T17:16:30.087Z,99.90
2022-08-30T17:18:59.750Z,99.90
2022-08-30T17:21:29.203Z,99.90
2022-08-30T17:24:01.550Z,99.90
2022-08-30T17:26:31.837Z,99.90
2022-08-30T17:28:59.125Z,99.90
2022-08-30T17:31:29.461Z,99.90
2022-08-30T17:34:02.925Z,99.90
2022-08-30T17:36:35.610Z,99.90
2022-08-30T17:39:11.328Z,99.90
2022-08-30T17:41:50.239Z,99.90
2022-08-30T17:44:25.818Z,99.90
2022-08-30T17:46:53.901Z,99.90
2022-08-30T17:49:21.403Z,99.90
2022-08-30T17:51:55.684Z,99.90
2022-08-30T17:54:24.571Z,99.90
2022-08-30T17:56:53.036Z,99.90
2022-08-30T17:59:25.032Z,99.90
2022-08-30T18:01:54.558Z,99.90
2022-08-30T18:04:21.864Z,99.90
2022-08-30T18:06:52.661Z,99.90
2022-08-30T18:09:19.626Z,99.90
2022-08-30T18:11:48.468Z,99.90
2022-08-30T18:14:16.150Z,99.90
2022-08-30T18:16:53.836Z,99.90
2022-08-30T18:19:25.754Z,99.90
2022-08-30T18:21:53.949Z,99.90
2022-08-30T18:24:22.083Z,99.90
2022-08-30T18:26:49.512Z,99.90
2022-08-30T18:29:21.268Z,99.90
2022-08-30T18:31:55.908Z,99.90
2022-08-30T18:34:23.584Z,99.90
2022-08-30T18:36:50.668Z,99.90
2022-08-30T18:39:17.651Z,99.90
2022-08-30T18:41:44.784Z,99.90
2022-08-30T18:47:00.666Z,99.90
2022-08-30T18:49:29.468Z,99.90
2022-08-30T18:52:01.096Z,99.90
2022-08-30T18:54:28.283Z,99.90
2022-08-30T18:56:55.506Z,99.90
2022-08-30T18:59:22.658Z,99.90
2022-08-30T19:02:03.237Z,99.90
2022-08-30T19:04:35.412Z,99.90
2022-08-30T19:07:04.682Z,99.90
2022-08-30T19:09:39.909Z,99.90
2022-08-30T19:12:12.533Z,99.90
2022-08-30T19:14:41.236Z,99.90
2022-08-30T19:17:08.449Z,99.90
2022-08-30T19:19:46.338Z,99.90
2022-08-30T19:22:19.949Z,99.90
2022-08-30T19:24:49.710Z,99.90
2022-08-30T19:27:23.138Z,99.90
2022-08-30T19:33:14.359Z,99.90
2022-08-30T19:35:41.603Z,99.90
2022-08-30T19:38:08.959Z,99.90
2022-08-30T19:40:36.187Z,99.90
2022-08-30T19:43:05.211Z,99.90
2022-08-30T19:45:33.939Z,99.90
2022-08-30T19:48:02.025Z,99.90
2022-08-30T19:50:30.131Z,99.90
2022-08-30T19:52:57.214Z,99.90
2022-08-30T19:55:28.743Z,99.90
2022-08-30T19:57:59.108Z,99.90
2022-08-30T20:00:26.705Z,99.90
2022-08-30T20:02:53.824Z,99.90
2022-08-30T20:05:22.223Z,99.90
2022-08-30T20:07:51.592Z,99.90
2022-08-30T20:10:20.558Z,99.90
2022-08-30T20:12:49.820Z,99.90
2022-08-30T20:15:18.243Z,99.90
2022-08-30T20:18:05.533Z,99.90
2022-08-30T20:20:36.626Z,99.90
2022-08-30T20:23:05.161Z,99.90
2022-08-30T20:24:29.291Z,99.90
2022-08-30T20:25:32.337Z,99.90
2022-08-30T20:28:00.475Z,99.90
2022-08-30T20:30:27.536Z,99.90
2022-08-30T20:32:54.698Z,99.90
2022-08-30T20:35:23.726Z,99.90
2022-08-30T20:37:51.130Z,99.90
2022-08-30T20:40:20.057Z,99.90
2022-08-30T20:42:47.456Z,99.90
2022-08-30T20:45:17.066Z,99.90
2022-08-30T20:47:44.565Z,99.90
2022-08-30T20:50:15.335Z,99.90
2022-08-30T20:52:43.141Z,99.90
2022-08-30T20:55:11.790Z,99.90
2022-08-30T20:57:39.760Z,99.90
2022-08-30T21:00:11.638Z,99.90
2022-08-30T21:02:42.685Z,99.90
2022-08-30T21:05:15.572Z,99.90
2022-08-30T21:07:46.764Z,99.90
2022-08-30T21:10:21.169Z,99.90
2022-08-30T21:12:50.302Z,99.90
2022-08-30T21:15:34.420Z,99.90
2022-08-30T21:18:04.221Z,99.90
2022-08-30T21:20:31.362Z,99.90
2022-08-30T21:22:58.439Z,99.90
2022-08-30T21:25:25.375Z,99.90
2022-08-30T21:27:53.964Z,99.90
2022-08-30T21:30:20.970Z,99.90
2022-08-30T21:32:47.988Z,99.90
2022-08-30T21:35:33.280Z,99.90
2022-08-30T21:38:00.300Z,99.90
2022-08-30T21:40:27.446Z,99.90
2022-08-30T21:42:54.495Z,99.90
2022-08-30T21:45:21.483Z,99.90
2022-08-30T21:47:48.514Z,99.90
2022-08-30T21:50:15.431Z,99.90
2022-08-30T21:52:42.514Z,99.90
2022-08-30T21:55:09.729Z,99.90
2022-08-30T21:57:37.034Z,99.90
2022-08-30T22:00:08.645Z,99.90
2022-08-30T22:02:35.700Z,99.90
2022-08-30T22:05:02.724Z,99.90
2022-08-30T22:07:29.729Z,99.90
2022-08-30T22:09:56.671Z,99.90
2022-08-30T22:12:23.616Z,99.90
2022-08-30T22:14:53.219Z,99.90
2022-08-30T22:17:20.856Z,99.90
2022-08-30T22:19:47.971Z,99.90
2022-08-30T22:22:14.980Z,99.90
2022-08-30T22:24:42.220Z,99.90
2022-08-30T22:27:09.335Z,99.90
2022-08-30T22:29:36.408Z,99.90
2022-08-30T22:32:03.717Z,99.90
2022-08-30T22:34:31.975Z,99.90
2022-08-30T22:36:59.578Z,99.90
2022-08-30T22:39:27.561Z,99.90
2022-08-30T22:41:54.688Z,99.90
2022-08-30T22:44:21.743Z,99.90
2022-08-30T22:46:48.775Z,99.90
2022-08-30T22:49:15.770Z,99.90
2022-08-30T22:51:43.584Z,99.90
2022-08-30T22:54:10.878Z,99.90
2022-08-30T22:56:39.261Z,99.90
2022-08-30T22:59:07.179Z,99.90
2022-08-30T23:01:37.964Z,99.90
2022-08-30T23:04:07.046Z,99.90
2022-08-30T23:06:34.643Z,99.90
2022-08-30T23:09:01.753Z,99.90
2022-08-30T23:11:29.481Z,99.90
2022-08-30T23:13:58.926Z,99.90
2022-08-30T23:16:25.925Z,99.90
2022-08-30T23:18:52.883Z,99.90
2022-08-30T23:21:23.561Z,99.90
2022-08-30T23:24:10.422Z,99.90
2022-08-30T23:26:57.266Z,99.90
2022-08-30T23:29:43.558Z,99.90
2022-08-30T23:32:28.991Z,99.90
2022-08-30T23:35:14.765Z,99.90
2022-08-30T23:38:00.669Z,99.90
2022-08-30T23:40:46.305Z,99.90
2022-08-30T23:43:32.117Z,99.90
2022-08-30T23:46:19.087Z,99.90
2022-08-30T23:49:09.215Z,99.90
2022-08-30T23:51:56.650Z,99.90
2022-08-30T23:54:43.700Z,99.90
2022-08-30T23:57:29.353Z,99.90
